sensor_id;sensor_type;location;lat;lon;timestamp;P1;durP1;ratioP1;P2;durP2;ratioP2
3085;SDS011;52812;48.960;9.108;2023-10-09T00:02:09;11.43;;;6.70;;
3085;SDS011;52812;48.960;9.108;2023-10-09T00:04:39;13.97;;;7.03;;
3085;SDS011;52812;48.960;9.108;2023-10-09T00:07:10;10.80;;;7.50;;
3085;SDS011;52812;48.960;9.108;2023-10-09T00:09:37;11.30;;;7.57;;
3085;SDS011;52812;48.960;9.108;2023-10-09T00:12:16;10.93;;;7.23;;
3085;SDS011;52812;48.960;9.108;2023-10-09T00:14:47;14.10;;;7.30;;
3085;SDS011;52812;48.960;9.108;2023-10-09T00:17:15;9.47;;;6.37;;
3085;SDS011;52812;48.960;9.108;2023-10-09T00:19:45;10.17;;;7.27;;
3085;SDS011;52812;48.960;9.108;2023-10-09T00:22:16;9.37;;;6.90;;
3085;SDS011;52812;48.960;9.108;2023-10-09T00:24:52;10.30;;;6.57;;
3085;SDS011;52812;48.960;9.108;2023-10-09T00:27:36;16.73;;;7.10;;
3085;SDS011;52812;48.960;9.108;2023-10-09T00:30:11;14.70;;;6.90;;
3085;SDS011;52812;48.960;9.108;2023-10-09T00:32:40;11.37;;;7.03;;
3085;SDS011;52812;48.960;9.108;2023-10-09T00:35:07;11.33;;;6.40;;
3085;SDS011;52812;48.960;9.108;2023-10-09T00:37:51;13.63;;;6.97;;
3085;SDS011;52812;48.960;9.108;2023-10-09T00:40:21;11.60;;;7.00;;
3085;SDS011;52812;48.960;9.108;2023-10-09T00:42:52;10.30;;;6.40;;
3085;SDS011;52812;48.960;9.108;2023-10-09T00:45:20;11.73;;;6.80;;
3085;SDS011;52812;48.960;9.108;2023-10-09T00:47:52;11.20;;;6.37;;
3085;SDS011;52812;48.960;9.108;2023-10-09T00:50:23;11.90;;;7.20;;
3085;SDS011;52812;48.960;9.108;2023-10-09T00:52:53;10.70;;;6.40;;
3085;SDS011;52812;48.960;9.108;2023-10-09T00:55:30;11.10;;;5.90;;
3085;SDS011;52812;48.960;9.108;2023-10-09T00:58:11;10.90;;;6.60;;
3085;SDS011;52812;48.960;9.108;2023-10-09T01:00:38;13.20;;;6.30;;
3085;SDS011;52812;48.960;9.108;2023-10-09T01:03:10;9.70;;;6.30;;
3085;SDS011;52812;48.960;9.108;2023-10-09T01:08:38;13.73;;;6.50;;
3085;SDS011;52812;48.960;9.108;2023-10-09T01:11:05;11.43;;;6.70;;
3085;SDS011;52812;48.960;9.108;2023-10-09T01:13:44;11.87;;;6.13;;
3085;SDS011;52812;48.960;9.108;2023-10-09T01:16:17;9.37;;;6.20;;
3085;SDS011;52812;48.960;9.108;2023-10-09T01:18:47;9.13;;;6.17;;
3085;SDS011;52812;48.960;9.108;2023-10-09T01:21:17;13.60;;;6.87;;
3085;SDS011;52812;48.960;9.108;2023-10-09T01:23:45;8.87;;;6.00;;
3085;SDS011;52812;48.960;9.108;2023-10-09T01:29:09;11.97;;;6.47;;
3085;SDS011;52812;48.960;9.108;2023-10-09T01:31:49;12.00;;;6.50;;
3085;SDS011;52812;48.960;9.108;2023-10-09T01:34:25;10.67;;;6.40;;
3085;SDS011;52812;48.960;9.108;2023-10-09T01:37:18;11.10;;;7.10;;
3085;SDS011;52812;48.960;9.108;2023-10-09T01:39:53;11.27;;;6.80;;
3085;SDS011;52812;48.960;9.108;2023-10-09T01:42:24;11.87;;;7.13;;
3085;SDS011;52812;48.960;9.108;2023-10-09T01:44:59;10.23;;;6.30;;
3085;SDS011;52812;48.960;9.108;2023-10-09T01:47:41;10.60;;;6.67;;
3085;SDS011;52812;48.960;9.108;2023-10-09T01:50:16;9.73;;;7.13;;
3085;SDS011;52812;48.960;9.108;2023-10-09T01:52:47;13.43;;;6.83;;
3085;SDS011;52812;48.960;9.108;2023-10-09T01:55:13;13.30;;;7.40;;
3085;SDS011;52812;48.960;9.108;2023-10-09T01:57:52;18.73;;;7.40;;
3085;SDS011;52812;48.960;9.108;2023-10-09T02:00:18;10.90;;;6.77;;
3085;SDS011;52812;48.960;9.108;2023-10-09T02:02:48;13.63;;;7.17;;
3085;SDS011;52812;48.960;9.108;2023-10-09T02:05:15;12.70;;;6.63;;
3085;SDS011;52812;48.960;9.108;2023-10-09T02:07:41;16.60;;;9.57;;
3085;SDS011;52812;48.960;9.108;2023-10-09T02:10:16;10.83;;;6.50;;
3085;SDS011;52812;48.960;9.108;2023-10-09T02:13:02;11.27;;;6.97;;
3085;SDS011;52812;48.960;9.108;2023-10-09T02:15:32;12.90;;;6.60;;
3085;SDS011;52812;48.960;9.108;2023-10-09T02:20:52;14.50;;;7.37;;
3085;SDS011;52812;48.960;9.108;2023-10-09T02:23:24;10.63;;;6.60;;
3085;SDS011;52812;48.960;9.108;2023-10-09T02:25:58;10.53;;;6.03;;
3085;SDS011;52812;48.960;9.108;2023-10-09T02:28:30;9.93;;;6.53;;
3085;SDS011;52812;48.960;9.108;2023-10-09T02:30:58;10.37;;;6.30;;
3085;SDS011;52812;48.960;9.108;2023-10-09T02:33:26;11.50;;;6.43;;
3085;SDS011;52812;48.960;9.108;2023-10-09T02:35:58;9.77;;;5.80;;
3085;SDS011;52812;48.960;9.108;2023-10-09T02:38:30;9.70;;;5.97;;
3085;SDS011;52812;48.960;9.108;2023-10-09T02:41:00;9.17;;;5.47;;
3085;SDS011;52812;48.960;9.108;2023-10-09T02:43:45;9.27;;;5.60;;
3085;SDS011;52812;48.960;9.108;2023-10-09T02:48:54;13.30;;;6.03;;
3085;SDS011;52812;48.960;9.108;2023-10-09T02:51:22;9.20;;;5.80;;
3085;SDS011;52812;48.960;9.108;2023-10-09T02:56:21;11.90;;;6.20;;
3085;SDS011;52812;48.960;9.108;2023-10-09T02:59:01;9.30;;;5.90;;
3085;SDS011;52812;48.960;9.108;2023-10-09T03:01:31;8.23;;;5.70;;
3085;SDS011;52812;48.960;9.108;2023-10-09T03:03:59;11.23;;;6.27;;
3085;SDS011;52812;48.960;9.108;2023-10-09T03:06:27;9.60;;;6.03;;
3085;SDS011;52812;48.960;9.108;2023-10-09T03:08:59;10.33;;;6.53;;
3085;SDS011;52812;48.960;9.108;2023-10-09T03:11:25;11.17;;;5.27;;
3085;SDS011;52812;48.960;9.108;2023-10-09T03:14:00;12.20;;;6.83;;
3085;SDS011;52812;48.960;9.108;2023-10-09T03:16:27;13.50;;;7.00;;
3085;SDS011;52812;48.960;9.108;2023-10-09T03:18:53;13.03;;;6.30;;
3085;SDS011;52812;48.960;9.108;2023-10-09T03:21:19;8.53;;;6.03;;
3085;SDS011;52812;48.960;9.108;2023-10-09T03:23:45;10.97;;;6.07;;
3085;SDS011;52812;48.960;9.108;2023-10-09T03:26:18;11.67;;;6.77;;
3085;SDS011;52812;48.960;9.108;2023-10-09T03:28:45;10.97;;;7.07;;
3085;SDS011;52812;48.960;9.108;2023-10-09T03:31:12;12.90;;;6.77;;
3085;SDS011;52812;48.960;9.108;2023-10-09T03:33:38;16.50;;;6.97;;
3085;SDS011;52812;48.960;9.108;2023-10-09T03:36:04;8.00;;;5.70;;
3085;SDS011;52812;48.960;9.108;2023-10-09T03:38:37;10.30;;;5.90;;
3085;SDS011;52812;48.960;9.108;2023-10-09T03:41:04;9.43;;;5.70;;
3085;SDS011;52812;48.960;9.108;2023-10-09T03:43:34;9.10;;;5.60;;
3085;SDS011;52812;48.960;9.108;2023-10-09T03:46:05;9.73;;;5.40;;
3085;SDS011;52812;48.960;9.108;2023-10-09T03:48:49;12.17;;;6.07;;
3085;SDS011;52812;48.960;9.108;2023-10-09T03:51:17;10.20;;;5.90;;
3085;SDS011;52812;48.960;9.108;2023-10-09T03:53:51;14.60;;;6.03;;
3085;SDS011;52812;48.960;9.108;2023-10-09T03:56:20;8.70;;;6.13;;
3085;SDS011;52812;48.960;9.108;2023-10-09T03:58:49;9.47;;;6.57;;
3085;SDS011;52812;48.960;9.108;2023-10-09T04:01:19;10.83;;;6.10;;
3085;SDS011;52812;48.960;9.108;2023-10-09T04:04:03;12.57;;;6.03;;
3085;SDS011;52812;48.960;9.108;2023-10-09T04:06:31;11.00;;;7.13;;
3085;SDS011;52812;48.960;9.108;2023-10-09T04:08:57;8.70;;;6.07;;
3085;SDS011;52812;48.960;9.108;2023-10-09T04:11:27;12.60;;;5.80;;
3085;SDS011;52812;48.960;9.108;2023-10-09T04:13:52;9.20;;;6.00;;
3085;SDS011;52812;48.960;9.108;2023-10-09T04:16:21;9.70;;;6.30;;
3085;SDS011;52812;48.960;9.108;2023-10-09T04:19:02;10.67;;;6.20;;
3085;SDS011;52812;48.960;9.108;2023-10-09T04:21:36;9.10;;;6.30;;
3085;SDS011;52812;48.960;9.108;2023-10-09T04:24:06;12.50;;;6.57;;
3085;SDS011;52812;48.960;9.108;2023-10-09T04:26:41;14.53;;;7.03;;
3085;SDS011;52812;48.960;9.108;2023-10-09T04:29:10;10.47;;;6.60;;
3085;SDS011;52812;48.960;9.108;2023-10-09T04:31:52;12.17;;;6.70;;
3085;SDS011;52812;48.960;9.108;2023-10-09T04:34:20;9.10;;;5.80;;
3085;SDS011;52812;48.960;9.108;2023-10-09T04:36:50;10.73;;;6.60;;
3085;SDS011;52812;48.960;9.108;2023-10-09T04:39:24;9.53;;;6.47;;
3085;SDS011;52812;48.960;9.108;2023-10-09T04:41:56;9.97;;;6.10;;
3085;SDS011;52812;48.960;9.108;2023-10-09T04:44:41;9.17;;;5.40;;
3085;SDS011;52812;48.960;9.108;2023-10-09T04:47:26;9.67;;;6.20;;
3085;SDS011;52812;48.960;9.108;2023-10-09T04:50:08;10.70;;;6.97;;
3085;SDS011;52812;48.960;9.108;2023-10-09T04:52:39;11.33;;;6.10;;
3085;SDS011;52812;48.960;9.108;2023-10-09T04:55:06;11.07;;;6.10;;
3085;SDS011;52812;48.960;9.108;2023-10-09T04:57:35;11.30;;;7.37;;
3085;SDS011;52812;48.960;9.108;2023-10-09T05:02:53;13.20;;;6.97;;
3085;SDS011;52812;48.960;9.108;2023-10-09T05:05:29;8.90;;;6.80;;
3085;SDS011;52812;48.960;9.108;2023-10-09T05:08:16;8.93;;;6.00;;
3085;SDS011;52812;48.960;9.108;2023-10-09T05:10:56;8.83;;;5.57;;
3085;SDS011;52812;48.960;9.108;2023-10-09T05:13:29;8.03;;;5.63;;
3085;SDS011;52812;48.960;9.108;2023-10-09T05:18:32;10.00;;;6.40;;
3085;SDS011;52812;48.960;9.108;2023-10-09T05:21:04;11.23;;;6.37;;
3085;SDS011;52812;48.960;9.108;2023-10-09T05:23:48;9.00;;;6.60;;
3085;SDS011;52812;48.960;9.108;2023-10-09T05:26:34;8.80;;;6.00;;
3085;SDS011;52812;48.960;9.108;2023-10-09T05:31:58;10.70;;;5.90;;
3085;SDS011;52812;48.960;9.108;2023-10-09T05:34:31;8.47;;;5.63;;
3085;SDS011;52812;48.960;9.108;2023-10-09T05:37:02;9.43;;;5.97;;
3085;SDS011;52812;48.960;9.108;2023-10-09T05:39:47;10.00;;;6.03;;
3085;SDS011;52812;48.960;9.108;2023-10-09T05:42:29;8.57;;;6.10;;
3085;SDS011;52812;48.960;9.108;2023-10-09T05:47:43;12.60;;;6.70;;
3085;SDS011;52812;48.960;9.108;2023-10-09T05:50:15;11.53;;;5.93;;
3085;SDS011;52812;48.960;9.108;2023-10-09T05:52:41;10.97;;;6.20;;
3085;SDS011;52812;48.960;9.108;2023-10-09T05:55:06;10.90;;;6.97;;
3085;SDS011;52812;48.960;9.108;2023-10-09T05:57:44;11.90;;;7.07;;
3085;SDS011;52812;48.960;9.108;2023-10-09T06:00:29;10.90;;;7.23;;
3085;SDS011;52812;48.960;9.108;2023-10-09T06:03:13;11.40;;;6.43;;
3085;SDS011;52812;48.960;9.108;2023-10-09T06:05:45;11.37;;;6.07;;
3085;SDS011;52812;48.960;9.108;2023-10-09T06:08:21;10.10;;;6.00;;
3085;SDS011;52812;48.960;9.108;2023-10-09T06:11:06;13.77;;;7.10;;
3085;SDS011;52812;48.960;9.108;2023-10-09T06:13:51;10.93;;;6.40;;
3085;SDS011;52812;48.960;9.108;2023-10-09T06:16:28;10.80;;;6.73;;
3085;SDS011;52812;48.960;9.108;2023-10-09T06:19:07;11.93;;;6.87;;
3085;SDS011;52812;48.960;9.108;2023-10-09T06:21:40;10.37;;;7.30;;
3085;SDS011;52812;48.960;9.108;2023-10-09T06:26:45;8.20;;;6.43;;
3085;SDS011;52812;48.960;9.108;2023-10-09T06:29:41;9.93;;;6.67;;
3085;SDS011;52812;48.960;9.108;2023-10-09T06:32:11;12.27;;;6.70;;
3085;SDS011;52812;48.960;9.108;2023-10-09T06:34:58;13.00;;;5.80;;
3085;SDS011;52812;48.960;9.108;2023-10-09T06:37:43;8.43;;;5.97;;
3085;SDS011;52812;48.960;9.108;2023-10-09T06:43:01;9.03;;;6.50;;
3085;SDS011;52812;48.960;9.108;2023-10-09T06:45:58;12.37;;;6.10;;
3085;SDS011;52812;48.960;9.108;2023-10-09T06:48:47;12.30;;;6.27;;
3085;SDS011;52812;48.960;9.108;2023-10-09T06:51:22;11.50;;;6.53;;
3085;SDS011;52812;48.960;9.108;2023-10-09T06:53:54;11.17;;;6.67;;
3085;SDS011;52812;48.960;9.108;2023-10-09T06:56:24;13.60;;;6.70;;
3085;SDS011;52812;48.960;9.108;2023-10-09T06:59:00;8.43;;;5.73;;
3085;SDS011;52812;48.960;9.108;2023-10-09T07:02:06;9.80;;;6.40;;
3085;SDS011;52812;48.960;9.108;2023-10-09T07:04:51;10.33;;;6.60;;
3085;SDS011;52812;48.960;9.108;2023-10-09T07:07:20;12.30;;;7.00;;
3085;SDS011;52812;48.960;9.108;2023-10-09T07:09:48;11.03;;;6.67;;
3085;SDS011;52812;48.960;9.108;2023-10-09T07:12:32;16.10;;;6.40;;
3085;SDS011;52812;48.960;9.108;2023-10-09T07:14:59;9.43;;;6.37;;
3085;SDS011;52812;48.960;9.108;2023-10-09T07:17:26;9.97;;;6.10;;
3085;SDS011;52812;48.960;9.108;2023-10-09T07:20:09;11.60;;;6.80;;
3085;SDS011;52812;48.960;9.108;2023-10-09T07:22:38;9.70;;;6.90;;
3085;SDS011;52812;48.960;9.108;2023-10-09T07:25:17;10.73;;;7.50;;
3085;SDS011;52812;48.960;9.108;2023-10-09T07:28:02;11.73;;;6.80;;
3085;SDS011;52812;48.960;9.108;2023-10-09T07:30:28;13.77;;;6.93;;
3085;SDS011;52812;48.960;9.108;2023-10-09T07:32:58;16.23;;;7.37;;
3085;SDS011;52812;48.960;9.108;2023-10-09T07:35:55;10.80;;;6.17;;
3085;SDS011;52812;48.960;9.108;2023-10-09T07:38:24;10.00;;;6.00;;
3085;SDS011;52812;48.960;9.108;2023-10-09T07:41:00;10.60;;;7.20;;
3085;SDS011;52812;48.960;9.108;2023-10-09T07:43:33;15.40;;;7.60;;
3085;SDS011;52812;48.960;9.108;2023-10-09T07:46:14;14.47;;;6.73;;
3085;SDS011;52812;48.960;9.108;2023-10-09T07:49:17;10.90;;;6.47;;
3085;SDS011;52812;48.960;9.108;2023-10-09T07:51:50;16.97;;;8.53;;
3085;SDS011;52812;48.960;9.108;2023-10-09T07:54:18;12.83;;;6.97;;
3085;SDS011;52812;48.960;9.108;2023-10-09T07:56:57;13.20;;;6.90;;
3085;SDS011;52812;48.960;9.108;2023-10-09T07:59:41;10.83;;;6.60;;
3085;SDS011;52812;48.960;9.108;2023-10-09T08:02:20;15.90;;;6.83;;
3085;SDS011;52812;48.960;9.108;2023-10-09T08:05:01;13.97;;;7.33;;
3085;SDS011;52812;48.960;9.108;2023-10-09T08:07:32;11.60;;;7.13;;
3085;SDS011;52812;48.960;9.108;2023-10-09T08:10:04;14.03;;;6.07;;
3085;SDS011;52812;48.960;9.108;2023-10-09T08:13:02;10.67;;;6.70;;
3085;SDS011;52812;48.960;9.108;2023-10-09T08:15:48;14.37;;;7.40;;
3085;SDS011;52812;48.960;9.108;2023-10-09T08:18:21;13.70;;;6.77;;
3085;SDS011;52812;48.960;9.108;2023-10-09T08:20:56;14.50;;;6.40;;
3085;SDS011;52812;48.960;9.108;2023-10-09T08:23:22;16.07;;;6.70;;
3085;SDS011;52812;48.960;9.108;2023-10-09T08:26:04;11.07;;;6.40;;
3085;SDS011;52812;48.960;9.108;2023-10-09T08:28:43;17.33;;;7.13;;
3085;SDS011;52812;48.960;9.108;2023-10-09T08:31:14;13.87;;;6.83;;
3085;SDS011;52812;48.960;9.108;2023-10-09T08:34:00;14.97;;;6.67;;
3085;SDS011;52812;48.960;9.108;2023-10-09T08:36:26;14.63;;;6.67;;
3085;SDS011;52812;48.960;9.108;2023-10-09T08:39:02;14.90;;;7.50;;
3085;SDS011;52812;48.960;9.108;2023-10-09T08:41:42;15.23;;;7.40;;
3085;SDS011;52812;48.960;9.108;2023-10-09T08:44:07;13.10;;;7.80;;
3085;SDS011;52812;48.960;9.108;2023-10-09T08:46:40;17.17;;;7.33;;
3085;SDS011;52812;48.960;9.108;2023-10-09T08:49:08;18.93;;;7.50;;
3085;SDS011;52812;48.960;9.108;2023-10-09T08:51:35;12.97;;;6.87;;
3085;SDS011;52812;48.960;9.108;2023-10-09T08:54:02;16.93;;;6.87;;
3085;SDS011;52812;48.960;9.108;2023-10-09T08:56:29;17.67;;;6.97;;
3085;SDS011;52812;48.960;9.108;2023-10-09T08:58:56;19.17;;;6.43;;
3085;SDS011;52812;48.960;9.108;2023-10-09T09:01:24;13.37;;;6.40;;
3085;SDS011;52812;48.960;9.108;2023-10-09T09:03:50;11.73;;;5.97;;
3085;SDS011;52812;48.960;9.108;2023-10-09T09:06:20;12.97;;;6.40;;
3085;SDS011;52812;48.960;9.108;2023-10-09T09:08:48;14.17;;;6.97;;
3085;SDS011;52812;48.960;9.108;2023-10-09T09:11:20;16.00;;;8.20;;
3085;SDS011;52812;48.960;9.108;2023-10-09T09:16:28;22.00;;;7.50;;
3085;SDS011;52812;48.960;9.108;2023-10-09T09:21:37;35.67;;;10.27;;
3085;SDS011;52812;48.960;9.108;2023-10-09T09:24:12;16.30;;;6.50;;
3085;SDS011;52812;48.960;9.108;2023-10-09T09:26:48;18.03;;;6.47;;
3085;SDS011;52812;48.960;9.108;2023-10-09T09:29:44;10.40;;;5.83;;
3085;SDS011;52812;48.960;9.108;2023-10-09T09:32:52;18.13;;;7.77;;
3085;SDS011;52812;48.960;9.108;2023-10-09T09:35:31;14.80;;;6.10;;
3085;SDS011;52812;48.960;9.108;2023-10-09T09:37:57;12.70;;;6.10;;
3085;SDS011;52812;48.960;9.108;2023-10-09T09:40:29;15.27;;;6.83;;
3085;SDS011;52812;48.960;9.108;2023-10-09T09:42:57;15.20;;;6.30;;
3085;SDS011;52812;48.960;9.108;2023-10-09T09:45:42;14.50;;;6.80;;
3085;SDS011;52812;48.960;9.108;2023-10-09T09:48:13;16.93;;;7.40;;
3085;SDS011;52812;48.960;9.108;2023-10-09T09:50:41;12.33;;;6.40;;
3085;SDS011;52812;48.960;9.108;2023-10-09T09:53:15;16.40;;;6.00;;
3085;SDS011;52812;48.960;9.108;2023-10-09T09:55:53;16.73;;;5.83;;
3085;SDS011;52812;48.960;9.108;2023-10-09T09:58:26;12.70;;;6.57;;
3085;SDS011;52812;48.960;9.108;2023-10-09T10:01:07;15.57;;;6.57;;
3085;SDS011;52812;48.960;9.108;2023-10-09T10:03:51;15.07;;;6.00;;
3085;SDS011;52812;48.960;9.108;2023-10-09T10:06:24;18.17;;;6.43;;
3085;SDS011;52812;48.960;9.108;2023-10-09T10:08:53;14.70;;;6.60;;
3085;SDS011;52812;48.960;9.108;2023-10-09T10:14:11;14.40;;;5.23;;
3085;SDS011;52812;48.960;9.108;2023-10-09T10:16:59;18.70;;;5.80;;
3085;SDS011;52812;48.960;9.108;2023-10-09T10:22:28;13.10;;;5.57;;
3085;SDS011;52812;48.960;9.108;2023-10-09T10:24:55;15.87;;;5.23;;
3085;SDS011;52812;48.960;9.108;2023-10-09T10:27:34;14.63;;;5.90;;
3085;SDS011;52812;48.960;9.108;2023-10-09T10:32:59;10.10;;;4.90;;
3085;SDS011;52812;48.960;9.108;2023-10-09T10:35:35;13.50;;;4.90;;
3085;SDS011;52812;48.960;9.108;2023-10-09T10:41:11;18.13;;;5.57;;
3085;SDS011;52812;48.960;9.108;2023-10-09T10:43:42;13.17;;;5.40;;
3085;SDS011;52812;48.960;9.108;2023-10-09T10:46:17;15.77;;;5.07;;
3085;SDS011;52812;48.960;9.108;2023-10-09T10:49:05;12.30;;;5.33;;
3085;SDS011;52812;48.960;9.108;2023-10-09T10:51:37;11.70;;;4.50;;
3085;SDS011;52812;48.960;9.108;2023-10-09T10:54:04;16.40;;;5.13;;
3085;SDS011;52812;48.960;9.108;2023-10-09T10:57:02;12.20;;;4.60;;
3085;SDS011;52812;48.960;9.108;2023-10-09T10:59:44;13.10;;;5.07;;
3085;SDS011;52812;48.960;9.108;2023-10-09T11:02:10;15.77;;;5.43;;
3085;SDS011;52812;48.960;9.108;2023-10-09T11:04:37;12.77;;;4.80;;
3085;SDS011;52812;48.960;9.108;2023-10-09T11:07:10;15.70;;;5.40;;
3085;SDS011;52812;48.960;9.108;2023-10-09T11:09:48;14.53;;;4.63;;
3085;SDS011;52812;48.960;9.108;2023-10-09T11:15:29;17.57;;;6.90;;
3085;SDS011;52812;48.960;9.108;2023-10-09T11:18:11;14.13;;;7.00;;
3085;SDS011;52812;48.960;9.108;2023-10-09T11:20:44;13.47;;;6.57;;
3085;SDS011;52812;48.960;9.108;2023-10-09T11:23:42;22.87;;;11.70;;
3085;SDS011;52812;48.960;9.108;2023-10-09T11:26:17;20.33;;;7.90;;
3085;SDS011;52812;48.960;9.108;2023-10-09T11:34:25;16.33;;;6.40;;
3085;SDS011;52812;48.960;9.108;2023-10-09T11:36:57;13.23;;;5.53;;
3085;SDS011;52812;48.960;9.108;2023-10-09T11:39:27;13.30;;;4.57;;
3085;SDS011;52812;48.960;9.108;2023-10-09T11:42:06;13.70;;;4.80;;
3085;SDS011;52812;48.960;9.108;2023-10-09T11:44:42;10.17;;;4.90;;
3085;SDS011;52812;48.960;9.108;2023-10-09T11:47:10;15.20;;;4.77;;
3085;SDS011;52812;48.960;9.108;2023-10-09T11:49:49;11.00;;;4.53;;
3085;SDS011;52812;48.960;9.108;2023-10-09T11:52:25;12.00;;;4.57;;
3085;SDS011;52812;48.960;9.108;2023-10-09T11:55:06;10.97;;;5.40;;
3085;SDS011;52812;48.960;9.108;2023-10-09T11:57:33;16.80;;;4.80;;
3085;SDS011;52812;48.960;9.108;2023-10-09T12:00:03;14.97;;;5.10;;
3085;SDS011;52812;48.960;9.108;2023-10-09T12:02:48;17.37;;;4.13;;
3085;SDS011;52812;48.960;9.108;2023-10-09T12:05:14;15.10;;;4.60;;
3085;SDS011;52812;48.960;9.108;2023-10-09T12:07:43;15.60;;;4.30;;
3085;SDS011;52812;48.960;9.108;2023-10-09T12:10:12;13.60;;;4.73;;
3085;SDS011;52812;48.960;9.108;2023-10-09T12:12:40;12.60;;;3.83;;
3085;SDS011;52812;48.960;9.108;2023-10-09T12:15:11;16.90;;;4.10;;
3085;SDS011;52812;48.960;9.108;2023-10-09T12:17:42;10.97;;;3.37;;
3085;SDS011;52812;48.960;9.108;2023-10-09T12:20:15;7.90;;;3.57;;
3085;SDS011;52812;48.960;9.108;2023-10-09T12:23:04;15.33;;;5.30;;
3085;SDS011;52812;48.960;9.108;2023-10-09T12:25:31;12.30;;;4.90;;
3085;SDS011;52812;48.960;9.108;2023-10-09T12:27:58;10.20;;;4.07;;
3085;SDS011;52812;48.960;9.108;2023-10-09T12:30:26;14.57;;;4.67;;
3085;SDS011;52812;48.960;9.108;2023-10-09T12:32:54;15.30;;;4.50;;
3085;SDS011;52812;48.960;9.108;2023-10-09T12:35:22;8.23;;;3.73;;
3085;SDS011;52812;48.960;9.108;2023-10-09T12:37:51;9.80;;;4.00;;
3085;SDS011;52812;48.960;9.108;2023-10-09T12:40:19;8.10;;;3.90;;
3085;SDS011;52812;48.960;9.108;2023-10-09T12:42:56;13.10;;;4.50;;
3085;SDS011;52812;48.960;9.108;2023-10-09T12:45:25;9.93;;;3.80;;
3085;SDS011;52812;48.960;9.108;2023-10-09T12:47:54;7.53;;;3.87;;
3085;SDS011;52812;48.960;9.108;2023-10-09T12:50:33;10.03;;;4.00;;
3085;SDS011;52812;48.960;9.108;2023-10-09T12:52:59;13.33;;;3.63;;
3085;SDS011;52812;48.960;9.108;2023-10-09T12:55:30;15.57;;;3.80;;
3085;SDS011;52812;48.960;9.108;2023-10-09T12:58:00;14.87;;;4.17;;
3085;SDS011;52812;48.960;9.108;2023-10-09T13:00:26;10.63;;;3.93;;
3085;SDS011;52812;48.960;9.108;2023-10-09T13:02:52;9.40;;;3.70;;
3085;SDS011;52812;48.960;9.108;2023-10-09T13:05:18;9.23;;;4.40;;
3085;SDS011;52812;48.960;9.108;2023-10-09T13:07:51;14.03;;;5.27;;
3085;SDS011;52812;48.960;9.108;2023-10-09T13:10:26;8.77;;;3.63;;
3085;SDS011;52812;48.960;9.108;2023-10-09T13:12:56;8.53;;;3.47;;
3085;SDS011;52812;48.960;9.108;2023-10-09T13:15:22;9.00;;;3.67;;
3085;SDS011;52812;48.960;9.108;2023-10-09T13:17:47;8.20;;;3.50;;
3085;SDS011;52812;48.960;9.108;2023-10-09T13:20:13;10.87;;;3.60;;
3085;SDS011;52812;48.960;9.108;2023-10-09T13:22:39;16.23;;;4.20;;
3085;SDS011;52812;48.960;9.108;2023-10-09T13:25:09;9.27;;;3.70;;
3085;SDS011;52812;48.960;9.108;2023-10-09T13:27:44;9.47;;;3.63;;
3085;SDS011;52812;48.960;9.108;2023-10-09T13:30:19;8.50;;;3.37;;
3085;SDS011;52812;48.960;9.108;2023-10-09T13:32:51;10.67;;;3.93;;
3085;SDS011;52812;48.960;9.108;2023-10-09T13:35:20;12.30;;;3.77;;
3085;SDS011;52812;48.960;9.108;2023-10-09T13:37:52;11.23;;;3.90;;
3085;SDS011;52812;48.960;9.108;2023-10-09T13:40:21;8.33;;;3.70;;
3085;SDS011;52812;48.960;9.108;2023-10-09T13:42:56;10.70;;;3.80;;
3085;SDS011;52812;48.960;9.108;2023-10-09T13:45:27;13.40;;;3.60;;
3085;SDS011;52812;48.960;9.108;2023-10-09T13:47:56;10.00;;;4.20;;
3085;SDS011;52812;48.960;9.108;2023-10-09T13:50:25;8.73;;;4.00;;
3085;SDS011;52812;48.960;9.108;2023-10-09T13:52:58;11.20;;;4.00;;
3085;SDS011;52812;48.960;9.108;2023-10-09T13:55:24;14.20;;;4.00;;
3085;SDS011;52812;48.960;9.108;2023-10-09T13:57:56;8.77;;;3.80;;
3085;SDS011;52812;48.960;9.108;2023-10-09T14:00:25;12.93;;;4.30;;
3085;SDS011;52812;48.960;9.108;2023-10-09T14:03:07;11.10;;;4.30;;
3085;SDS011;52812;48.960;9.108;2023-10-09T14:05:39;10.73;;;4.73;;
3085;SDS011;52812;48.960;9.108;2023-10-09T14:08:22;12.77;;;3.97;;
3085;SDS011;52812;48.960;9.108;2023-10-09T14:10:51;8.90;;;4.00;;
3085;SDS011;52812;48.960;9.108;2023-10-09T14:13:17;13.90;;;4.13;;
3085;SDS011;52812;48.960;9.108;2023-10-09T14:15:51;15.57;;;5.10;;
3085;SDS011;52812;48.960;9.108;2023-10-09T14:18:20;16.50;;;4.57;;
3085;SDS011;52812;48.960;9.108;2023-10-09T14:20:46;11.33;;;4.10;;
3085;SDS011;52812;48.960;9.108;2023-10-09T14:23:12;9.73;;;4.20;;
3085;SDS011;52812;48.960;9.108;2023-10-09T14:25:45;9.53;;;4.50;;
3085;SDS011;52812;48.960;9.108;2023-10-09T14:28:14;11.83;;;4.57;;
3085;SDS011;52812;48.960;9.108;2023-10-09T14:30:43;14.03;;;4.57;;
3085;SDS011;52812;48.960;9.108;2023-10-09T14:33:12;14.50;;;5.10;;
3085;SDS011;52812;48.960;9.108;2023-10-09T14:35:41;10.93;;;4.43;;
3085;SDS011;52812;48.960;9.108;2023-10-09T14:38:09;10.87;;;4.37;;
3085;SDS011;52812;48.960;9.108;2023-10-09T14:40:42;12.90;;;4.37;;
3085;SDS011;52812;48.960;9.108;2023-10-09T14:43:09;10.87;;;4.83;;
3085;SDS011;52812;48.960;9.108;2023-10-09T14:45:44;9.87;;;4.50;;
3085;SDS011;52812;48.960;9.108;2023-10-09T14:48:13;8.17;;;4.23;;
3085;SDS011;52812;48.960;9.108;2023-10-09T14:50:51;10.10;;;4.47;;
3085;SDS011;52812;48.960;9.108;2023-10-09T14:53:23;11.43;;;4.57;;
3085;SDS011;52812;48.960;9.108;2023-10-09T14:56:01;9.90;;;4.47;;
3085;SDS011;52812;48.960;9.108;2023-10-09T14:58:28;10.20;;;4.20;;
3085;SDS011;52812;48.960;9.108;2023-10-09T15:00:55;15.50;;;4.90;;
3085;SDS011;52812;48.960;9.108;2023-10-09T15:03:21;15.23;;;4.30;;
3085;SDS011;52812;48.960;9.108;2023-10-09T15:05:48;9.60;;;4.73;;
3085;SDS011;52812;48.960;9.108;2023-10-09T15:08:14;12.30;;;4.30;;
3085;SDS011;52812;48.960;9.108;2023-10-09T15:13:17;10.57;;;4.27;;
3085;SDS011;52812;48.960;9.108;2023-10-09T15:15:43;10.37;;;4.10;;
3085;SDS011;52812;48.960;9.108;2023-10-09T15:18:09;13.80;;;5.00;;
3085;SDS011;52812;48.960;9.108;2023-10-09T15:20:38;16.80;;;6.23;;
3085;SDS011;52812;48.960;9.108;2023-10-09T15:23:05;12.07;;;5.67;;
3085;SDS011;52812;48.960;9.108;2023-10-09T15:25:34;16.03;;;4.97;;
3085;SDS011;52812;48.960;9.108;2023-10-09T15:28:03;9.60;;;4.20;;
3085;SDS011;52812;48.960;9.108;2023-10-09T15:30:29;15.07;;;4.83;;
3085;SDS011;52812;48.960;9.108;2023-10-09T15:32:56;11.03;;;4.47;;
3085;SDS011;52812;48.960;9.108;2023-10-09T15:35:22;14.10;;;4.27;;
3085;SDS011;52812;48.960;9.108;2023-10-09T15:37:48;8.13;;;3.80;;
3085;SDS011;52812;48.960;9.108;2023-10-09T15:40:17;13.57;;;3.70;;
3085;SDS011;52812;48.960;9.108;2023-10-09T15:42:44;12.77;;;4.27;;
3085;SDS011;52812;48.960;9.108;2023-10-09T15:45:14;14.60;;;4.20;;
3085;SDS011;52812;48.960;9.108;2023-10-09T15:47:41;10.13;;;4.43;;
3085;SDS011;52812;48.960;9.108;2023-10-09T15:50:10;10.87;;;4.40;;
3085;SDS011;52812;48.960;9.108;2023-10-09T15:52:38;12.57;;;4.13;;
3085;SDS011;52812;48.960;9.108;2023-10-09T15:55:04;12.17;;;4.17;;
3085;SDS011;52812;48.960;9.108;2023-10-09T15:57:41;10.50;;;3.93;;
3085;SDS011;52812;48.960;9.108;2023-10-09T16:00:07;9.93;;;4.13;;
3085;SDS011;52812;48.960;9.108;2023-10-09T16:02:42;13.30;;;3.93;;
3085;SDS011;52812;48.960;9.108;2023-10-09T16:05:12;13.17;;;4.20;;
3085;SDS011;52812;48.960;9.108;2023-10-09T16:07:38;11.60;;;4.10;;
3085;SDS011;52812;48.960;9.108;2023-10-09T16:10:05;15.03;;;4.27;;
3085;SDS011;52812;48.960;9.108;2023-10-09T16:12:33;15.93;;;4.73;;
3085;SDS011;52812;48.960;9.108;2023-10-09T16:15:03;13.57;;;4.10;;
3085;SDS011;52812;48.960;9.108;2023-10-09T16:17:31;16.93;;;4.43;;
3085;SDS011;52812;48.960;9.108;2023-10-09T16:20:00;12.77;;;4.53;;
3085;SDS011;52812;48.960;9.108;2023-10-09T16:22:26;13.47;;;4.97;;
3085;SDS011;52812;48.960;9.108;2023-10-09T16:24:54;13.87;;;5.00;;